Time;durP1;ratioP1;P1;durP2;ratioP2;P2;SDS_P1;SDS_P2;PMS_P1;PMS_P2;Temp;Humidity;BMP_temperature;BMP_pressure;BME280_temperature;BME280_humidity;BME280_pressure;Samples;Min_cycle;Max_cycle;Signal;HPM_P1;HPM_P2
2020/12/13 00:01:41;;;;;;;15.87;13.00;;;7.70;99.90;;;;;;5070296;28;20451;-88
2020/12/13 00:04:08;;;;;;;13.40;12.00;;;7.70;99.90;;;;;;5071864;28;20439;-89
2020/12/13 00:06:35;;;;;;;14.30;11.90;;;7.60;99.90;;;;;;5052712;28;20448;-89
2020/12/13 00:09:03;;;;;;;14.30;12.90;;;7.60;99.90;;;;;;5051545;28;20507;-89
2020/12/13 00:11:30;;;;;;;14.57;12.87;;;7.60;99.90;;;;;;5051390;28;20483;-89
2020/12/13 00:13:57;;;;;;;13.70;12.40;;;7.60;99.90;;;;;;5050124;28;20475;-89
2020/12/13 00:16:23;;;;;;;14.87;13.37;;;7.60;99.90;;;;;;5067707;28;20505;-89
2020/12/13 00:18:49;;;;;;;15.20;13.57;;;7.60;99.90;;;;;;5071567;28;20845;-88
2020/12/13 00:21:17;;;;;;;15.60;14.10;;;7.60;99.90;;;;;;5056499;28;20468;-89
2020/12/13 00:23:44;;;;;;;17.63;13.93;;;7.60;99.90;;;;;;5051316;28;20448;-89
2020/12/13 00:26:11;;;;;;;18.23;14.43;;;7.70;99.90;;;;;;5065461;28;20522;-89
2020/12/13 00:28:38;;;;;;;15.17;13.57;;;7.60;99.90;;;;;;5061989;28;20448;-89
2020/12/13 00:31:05;;;;;;;14.73;12.20;;;7.60;99.90;;;;;;5051340;28;20464;-89
2020/12/13 00:33:32;;;;;;;13.57;12.17;;;7.70;99.90;;;;;;5058864;28;20443;-88
2020/12/13 00:35:58;;;;;;;14.13;12.70;;;7.70;99.90;;;;;;5071170;28;20451;-89
2020/12/13 00:38:24;;;;;;;14.50;13.07;;;7.60;99.90;;;;;;5065125;28;20456;-88
2020/12/13 00:40:52;;;;;;;14.10;12.80;;;7.60;99.90;;;;;;5061234;28;20994;-89
2020/12/13 00:43:18;;;;;;;14.17;12.90;;;7.70;99.90;;;;;;5066783;28;20452;-90
2020/12/13 00:45:45;;;;;;;15.03;13.23;;;7.60;99.90;;;;;;5051082;28;20448;-89
2020/12/13 00:48:11;;;;;;;13.80;12.50;;;7.60;99.90;;;;;;5053962;28;20860;-89
2020/12/13 00:50:38;;;;;;;14.80;13.33;;;7.70;99.90;;;;;;5071169;28;20495;-88
2020/12/13 00:53:05;;;;;;;13.93;12.63;;;7.70;99.90;;;;;;5070037;28;20534;-89
2020/12/13 00:55:31;;;;;;;15.77;14.23;;;7.60;99.90;;;;;;5051007;28;20448;-89
2020/12/13 00:57:58;;;;;;;15.37;13.87;;;7.60;99.90;;;;;;5051573;28;21071;-88
2020/12/13 01:00:25;;;;;;;16.20;14.60;;;7.60;99.90;;;;;;5071119;28;20502;-89
2020/12/13 01:02:52;;;;;;;14.20;11.90;;;7.60;99.90;;;;;;5071045;28;20840;-88
2020/12/13 01:05:19;;;;;;;16.33;14.10;;;7.70;99.90;;;;;;5051352;28;20834;-88
2020/12/13 01:07:46;;;;;;;14.60;13.20;;;7.60;99.90;;;;;;5051104;28;20451;-88
2020/12/13 01:10:12;;;;;;;15.33;13.83;;;7.60;99.90;;;;;;5068821;28;20479;-89
2020/12/13 01:12:41;;;;;;;14.63;13.13;;;7.70;99.90;;;;;;5071273;28;20451;-89
2020/12/13 01:15:08;;;;;;;14.27;12.87;;;7.60;99.90;;;;;;5053666;28;20463;-89
2020/12/13 01:17:35;;;;;;;15.20;13.70;;;7.70;99.90;;;;;;5050926;28;20448;-90
2020/12/13 01:20:01;;;;;;;14.00;12.70;;;7.60;99.90;;;;;;5067055;28;20470;-89
2020/12/13 01:22:27;;;;;;;15.47;13.87;;;7.60;99.90;;;;;;5073296;28;20443;-89
2020/12/13 01:24:53;;;;;;;14.73;13.23;;;7.60;99.90;;;;;;5080012;28;20473;-89
2020/12/13 01:27:19;;;;;;;16.77;13.97;;;7.60;99.90;;;;;;5087972;28;20492;-89
2020/12/13 01:29:46;;;;;;;14.93;13.43;;;7.50;99.90;;;;;;5072472;28;21029;-90
2020/12/13 01:32:13;;;;;;;14.27;12.77;;;7.60;99.90;;;;;;5074462;28;20883;-89
2020/12/13 01:34:39;;;;;;;13.90;12.50;;;7.60;99.90;;;;;;5053985;28;20448;-89
2020/12/13 01:37:05;;;;;;;14.50;13.10;;;7.50;99.90;;;;;;5054368;28;20441;-89
2020/12/13 01:39:31;;;;;;;13.63;12.33;;;7.50;99.90;;;;;;5054030;28;20468;-89
2020/12/13 01:41:58;;;;;;;14.40;12.80;;;7.60;99.90;;;;;;5054296;28;20498;-90
2020/12/13 01:44:31;;;;;;;13.17;11.83;;;7.60;99.90;;;;;;5053871;28;20444;-90
2020/12/13 01:46:57;;;;;;;14.60;13.10;;;7.50;99.90;;;;;;5054157;28;20487;-89
2020/12/13 01:49:28;;;;;;;13.63;12.33;;;7.50;99.90;;;;;;5053792;28;20495;-90
2020/12/13 01:52:07;;;;;;;14.27;11.70;;;7.50;99.90;;;;;;5053998;28;20502;-89
2020/12/13 01:54:35;;;;;;;13.63;12.23;;;7.50;99.90;;;;;;5053592;28;21076;-90
2020/12/13 01:57:02;;;;;;;13.70;12.30;;;7.50;99.90;;;;;;5054114;28;20933;-89
2020/12/13 01:59:30;;;;;;;11.73;10.63;;;7.50;99.90;;;;;;5053486;28;20465;-89
2020/12/13 02:01:58;;;;;;;12.90;11.70;;;7.50;99.90;;;;;;5053750;28;20452;-90
2020/12/13 02:04:28;;;;;;;12.63;10.70;;;7.60;99.90;;;;;;5053606;28;20453;-90
2020/12/13 02:06:55;;;;;;;14.73;13.23;;;7.50;99.90;;;;;;5053635;28;20804;-89
2020/12/13 02:09:23;;;;;;;13.77;12.37;;;7.50;99.90;;;;;;5053514;28;20877;-90
2020/12/13 02:11:50;;;;;;;13.60;12.20;;;7.50;99.90;;;;;;5053760;28;20467;-89
2020/12/13 02:14:16;;;;;;;14.10;12.67;;;7.50;99.90;;;;;;5053202;28;20452;-89
2020/12/13 02:16:43;;;;;;;13.47;12.03;;;7.50;99.90;;;;;;5053227;28;20440;-89
2020/12/13 02:19:10;;;;;;;12.33;11.07;;;7.50;99.90;;;;;;5053294;28;20502;-90
2020/12/13 02:21:42;;;;;;;12.77;11.27;;;7.50;99.90;;;;;;5053579;28;20444;-89
2020/12/13 02:24:09;;;;;;;12.83;11.50;;;7.50;99.90;;;;;;5053129;28;20953;-89
2020/12/13 02:26:39;;;;;;;12.50;11.40;;;7.50;99.90;;;;;;5053161;28;20498;-89
2020/12/13 02:29:05;;;;;;;13.73;12.40;;;7.50;99.90;;;;;;5052861;28;20448;-89
2020/12/13 02:31:32;;;;;;;12.13;11.03;;;7.50;99.90;;;;;;5053478;28;20494;-89
2020/12/13 02:33:58;;;;;;;12.70;11.50;;;7.50;99.90;;;;;;5053262;28;20444;-90
2020/12/13 02:36:24;;;;;;;13.00;11.57;;;7.50;99.90;;;;;;5053045;28;20790;-90
2020/12/13 02:38:50;;;;;;;12.97;11.77;;;7.40;99.90;;;;;;5052997;28;20452;-89
2020/12/13 02:41:17;;;;;;;12.37;11.07;;;7.50;99.90;;;;;;5053038;28;20465;-90
2020/12/13 02:43:43;;;;;;;12.57;11.40;;;7.60;99.90;;;;;;5052880;28;20455;-90
2020/12/13 02:46:09;;;;;;;11.33;10.07;;;7.60;99.90;;;;;;5052781;28;20503;-89
2020/12/13 02:48:36;;;;;;;11.57;10.37;;;7.60;99.90;;;;;;5052807;28;20489;-90
2020/12/13 02:51:02;;;;;;;10.93;9.90;;;7.60;99.90;;;;;;5052736;28;20502;-90
2020/12/13 02:53:28;;;;;;;12.63;11.37;;;7.50;99.90;;;;;;5052969;28;20449;-89
2020/12/13 02:55:54;;;;;;;11.23;10.10;;;7.60;99.90;;;;;;5052254;28;20444;-89
2020/12/13 02:58:21;;;;;;;10.67;9.67;;;7.50;99.90;;;;;;5052776;28;20444;-89
2020/12/13 03:00:47;;;;;;;11.30;10.03;;;7.60;99.90;;;;;;5052376;28;20460;-89
2020/12/13 03:03:13;;;;;;;11.37;10.40;;;7.60;99.90;;;;;;5052522;28;20502;-90
2020/12/13 03:05:39;;;;;;;10.53;9.50;;;7.60;99.90;;;;;;5052115;28;20831;-89
2020/12/13 03:08:07;;;;;;;10.67;9.77;;;7.60;99.90;;;;;;5052650;28;20449;-89
2020/12/13 03:10:33;;;;;;;11.23;10.17;;;7.60;99.90;;;;;;5052140;28;20520;-89
2020/12/13 03:12:59;;;;;;;10.83;9.93;;;7.70;99.90;;;;;;5052671;28;20448;-90
2020/12/13 03:15:26;;;;;;;10.20;9.30;;;7.60;99.90;;;;;;5052145;28;20843;-90
2020/12/13 03:17:52;;;;;;;10.60;9.60;;;7.60;99.90;;;;;;5052424;28;20478;-90
2020/12/13 03:20:18;;;;;;;8.40;7.60;;;7.60;99.90;;;;;;5052140;28;20464;-90
2020/12/13 03:22:44;;;;;;;12.20;11.03;;;7.60;99.90;;;;;;5052469;28;20440;-89
2020/12/13 03:25:11;;;;;;;10.67;9.67;;;7.60;99.90;;;;;;5051905;28;20502;-89
2020/12/13 03:27:37;;;;;;;10.20;9.20;;;7.70;99.90;;;;;;5052314;28;20451;-90
2020/12/13 03:30:03;;;;;;;10.97;9.87;;;7.70;99.90;;;;;;5051718;28;20491;-90
2020/12/13 03:32:35;;;;;;;10.43;9.40;;;7.80;99.90;;;;;;5052439;28;20444;-89
2020/12/13 03:35:02;;;;;;;9.90;9.00;;;7.80;99.90;;;;;;5052139;28;20454;-89
2020/12/13 03:37:28;;;;;;;9.10;8.30;;;7.80;99.90;;;;;;5054268;28;20491;-89
2020/12/13 03:39:54;;;;;;;9.07;8.27;;;7.80;99.90;;;;;;5055556;28;20600;-90
2020/12/13 03:42:20;;;;;;;9.90;8.43;;;7.80;99.90;;;;;;5063940;28;20448;-89
2020/12/13 03:44:47;;;;;;;8.43;7.73;;;7.70;99.90;;;;;;5052537;28;21019;-89
2020/12/13 03:47:13;;;;;;;10.53;9.57;;;7.80;99.90;;;;;;5051555;28;20448;-89
2020/12/13 03:49:40;;;;;;;10.57;9.57;;;7.70;99.90;;;;;;5051516;28;20488;-90
2020/12/13 03:52:06;;;;;;;10.93;9.73;;;7.60;99.90;;;;;;5051984;28;20918;-90
2020/12/13 03:54:32;;;;;;;10.50;9.47;;;7.60;99.90;;;;;;5051366;28;20498;-91
2020/12/13 03:56:58;;;;;;;11.10;10.10;;;7.60;99.90;;;;;;5051793;28;20448;-90
2020/12/13 03:59:25;;;;;;;10.17;9.17;;;7.60;99.90;;;;;;5051777;28;20989;-89
2020/12/13 04:01:51;;;;;;;11.17;10.07;;;7.60;99.90;;;;;;5051494;28;20459;-90
2020/12/13 04:04:17;;;;;;;9.60;8.60;;;7.60;99.90;;;;;;5052778;28;20497;-90
2020/12/13 04:06:44;;;;;;;11.60;10.40;;;7.60;99.90;;;;;;5051276;28;20440;-89
2020/12/13 04:09:10;;;;;;;10.90;9.90;;;7.70;99.90;;;;;;5053631;28;20521;-89
2020/12/13 04:11:36;;;;;;;10.73;9.73;;;7.70;99.90;;;;;;5071756;28;20878;-90
2020/12/13 04:14:02;;;;;;;11.40;10.00;;;7.70;99.90;;;;;;5069599;28;20439;-90
2020/12/13 04:16:30;;;;;;;11.83;10.63;;;7.70;99.90;;;;;;5051236;28;20440;-89
2020/12/13 04:18:56;;;;;;;9.93;8.93;;;7.70;99.90;;;;;;5051318;28;20440;-89
2020/12/13 04:21:22;;;;;;;11.33;10.33;;;7.80;99.90;;;;;;5071649;28;20501;-90
2020/12/13 04:23:49;;;;;;;10.43;9.53;;;7.80;99.90;;;;;;5071552;28;20443;-89
2020/12/13 04:26:15;;;;;;;10.83;9.83;;;7.80;99.90;;;;;;5070714;28;20455;-90
2020/12/13 04:28:41;;;;;;;12.00;10.53;;;7.70;99.90;;;;;;5071422;28;20477;-90
2020/12/13 04:31:08;;;;;;;12.23;10.70;;;7.60;99.90;;;;;;5052945;28;20558;-90
2020/12/13 04:33:34;;;;;;;11.87;10.63;;;7.60;99.90;;;;;;5051348;28;21038;-89
2020/12/13 04:36:00;;;;;;;12.00;10.80;;;7.50;99.90;;;;;;5068122;28;20494;-90
2020/12/13 04:38:26;;;;;;;11.50;10.17;;;7.50;99.90;;;;;;5071477;28;20490;-89
2020/12/13 04:40:54;;;;;;;9.93;9.13;;;7.70;99.90;;;;;;5055303;28;20468;-89
2020/12/13 04:43:21;;;;;;;11.17;9.30;;;7.80;99.90;;;;;;5051376;28;20444;-90
2020/12/13 04:45:47;;;;;;;9.90;8.90;;;7.80;99.90;;;;;;5065849;28;20486;-90
2020/12/13 04:48:14;;;;;;;10.07;9.07;;;7.80;99.90;;;;;;5071319;28;20493;-89
2020/12/13 04:50:40;;;;;;;10.80;9.80;;;7.90;99.90;;;;;;5057083;28;20476;-90
2020/12/13 04:53:08;;;;;;;9.07;8.17;;;8.00;99.90;;;;;;5051357;28;20471;-89
2020/12/13 04:55:40;;;;;;;9.43;8.53;;;8.00;99.90;;;;;;5064056;28;20452;-89
2020/12/13 04:58:12;;;;;;;10.30;8.97;;;8.00;99.90;;;;;;5071422;28;20435;-89
2020/12/13 05:00:41;;;;;;;9.07;8.03;;;8.00;99.90;;;;;;5061261;28;20482;-90
2020/12/13 05:03:11;;;;;;;7.20;6.50;;;8.00;99.90;;;;;;5054953;28;20506;-90
2020/12/13 05:05:38;;;;;;;10.07;8.77;;;8.00;99.90;;;;;;5055757;28;20956;-89
2020/12/13 05:08:04;;;;;;;9.43;8.53;;;8.00;99.90;;;;;;5054977;28;20432;-90
2020/12/13 05:10:31;;;;;;;9.17;8.30;;;8.00;99.90;;;;;;5067788;28;20532;-90
2020/12/13 05:12:58;;;;;;;9.23;7.80;;;8.00;99.90;;;;;;5074828;28;20435;-90
2020/12/13 05:15:25;;;;;;;10.20;9.20;;;7.90;99.90;;;;;;5061423;28;20447;-89
2020/12/13 05:17:51;;;;;;;8.87;8.03;;;7.90;99.90;;;;;;5054739;28;20448;-90
2020/12/13 05:20:19;;;;;;;9.33;8.43;;;7.90;99.90;;;;;;5065703;28;20463;-90
2020/12/13 05:22:46;;;;;;;8.57;7.80;;;7.90;99.90;;;;;;5074644;28;20496;-89
2020/12/13 05:25:13;;;;;;;9.80;8.80;;;7.90;99.90;;;;;;5063127;28;20452;-89
2020/12/13 05:27:41;;;;;;;8.67;7.77;;;7.90;99.90;;;;;;5054629;28;20437;-90
2020/12/13 05:30:08;;;;;;;9.23;8.43;;;7.90;99.90;;;;;;5063984;28;20561;-90
2020/12/13 05:32:35;;;;;;;9.07;7.80;;;8.00;99.90;;;;;;5074443;28;20432;-90
2020/12/13 05:35:02;;;;;;;8.07;7.37;;;8.00;99.90;;;;;;5064417;28;20542;-89
2020/12/13 05:37:30;;;;;;;8.07;7.37;;;8.00;99.90;;;;;;5054167;28;20980;-90
2020/12/13 05:39:56;;;;;;;7.37;6.67;;;8.00;99.90;;;;;;5061872;28;20463;-89
2020/12/13 05:42:27;;;;;;;7.37;6.77;;;8.00;99.90;;;;;;5074209;28;21017;-90
2020/12/13 05:45:16;;;;;;;7.23;6.63;;;8.00;99.90;;;;;;5065521;28;20455;-90
2020/12/13 05:48:13;;;;;;;8.13;7.37;;;8.00;99.90;;;;;;5056140;28;20445;-91
2020/12/13 05:53:26;;;;;;;7.40;6.70;;;8.00;99.90;;;;;;5076255;28;20407;-89
2020/12/13 05:55:56;;;;;;;6.43;5.83;;;8.00;99.90;;;;;;5067914;28;20805;-88
2020/12/13 05:58:24;;;;;;;6.33;5.83;;;8.10;99.90;;;;;;5064958;28;20459;-88
2020/12/13 06:00:51;;;;;;;7.03;6.10;;;8.10;99.90;;;;;;5068828;28;20468;-88
2020/12/13 06:03:29;;;;;;;6.87;5.93;;;8.20;99.90;;;;;;5073871;28;20447;-90
2020/12/13 06:06:06;;;;;;;9.03;6.30;;;8.10;99.90;;;;;;5071955;28;20451;-91
2020/12/13 06:09:03;;;;;;;11.30;6.87;;;8.10;99.90;;;;;;5073962;28;20419;-89
2020/12/13 06:11:35;;;;;;;7.10;5.60;;;8.20;99.90;;;;;;5053533;28;20487;-89
2020/12/13 06:14:12;;;;;;;6.57;5.77;;;8.20;99.90;;;;;;5055127;28;20440;-89
2020/12/13 06:16:38;;;;;;;6.80;6.03;;;8.20;99.90;;;;;;5073347;28;20460;-89
2020/12/13 06:19:07;;;;;;;5.20;4.77;;;8.20;99.90;;;;;;5071807;28;20451;-89
2020/12/13 06:21:34;;;;;;;5.90;5.40;;;8.20;99.90;;;;;;5053558;28;20432;-89
2020/12/13 06:24:02;;;;;;;5.87;5.27;;;8.20;99.90;;;;;;5069939;28;20462;-89
2020/12/13 06:26:29;;;;;;;4.77;4.37;;;8.20;99.90;;;;;;5073233;28;20948;-89
2020/12/13 06:28:56;;;;;;;7.63;6.00;;;8.20;99.90;;;;;;5057165;28;20531;-89
2020/12/13 06:31:22;;;;;;;5.77;5.27;;;8.20;99.90;;;;;;5052964;28;20526;-89
2020/12/13 06:33:49;;;;;;;5.27;4.80;;;8.30;99.90;;;;;;5067908;28;20498;-89
2020/12/13 06:36:22;;;;;;;5.30;4.80;;;8.30;99.90;;;;;;5073028;28;20447;-90
2020/12/13 06:38:52;;;;;;;5.00;4.60;;;8.30;99.90;;;;;;5058550;28;20870;-89
2020/12/13 06:41:21;;;;;;;5.83;5.20;;;8.30;99.90;;;;;;5082143;28;20527;-89
2020/12/13 06:44:06;;;;;;;4.53;4.07;;;8.30;99.90;;;;;;5081336;28;20500;-89
2020/12/13 06:46:32;;;;;;;4.60;4.20;;;8.30;99.90;;;;;;5079974;28;20462;-84
2020/12/13 06:48:59;;;;;;;5.10;4.70;;;8.30;99.90;;;;;;5081799;28;20475;-84
2020/12/13 06:51:29;;;;;;;4.37;3.97;;;8.30;99.90;;;;;;5080168;28;20572;-84
2020/12/13 06:53:56;;;;;;;4.27;3.97;;;8.30;99.90;;;;;;5079158;28;21119;-84
2020/12/13 06:56:23;;;;;;;4.10;3.77;;;8.40;99.90;;;;;;5077043;28;20442;-88
2020/12/13 06:58:55;;;;;;;4.03;3.60;;;8.30;99.90;;;;;;5077996;28;20498;-91
2020/12/13 07:01:23;;;;;;;4.07;3.73;;;8.30;99.90;;;;;;5079104;28;20512;-91
2020/12/13 07:03:50;;;;;;;4.10;3.53;;;8.30;99.90;;;;;;5077876;28;20457;-91
2020/12/13 07:06:19;;;;;;;3.90;3.50;;;8.30;99.90;;;;;;5078507;28;20438;-91
2020/12/13 07:08:55;;;;;;;3.57;3.27;;;8.30;99.90;;;;;;5080157;28;20444;-91
2020/12/13 07:11:23;;;;;;;5.93;2.90;;;8.30;99.90;;;;;;5080923;28;20573;-90
2020/12/13 07:13:51;;;;;;;3.43;3.13;;;8.30;99.90;;;;;;5080148;28;20450;-90
2020/12/13 07:16:33;;;;;;;5.60;3.40;;;8.30;99.90;;;;;;5076613;28;20485;-90
2020/12/13 07:19:05;;;;;;;2.90;2.70;;;8.30;99.90;;;;;;5079553;28;20447;-91
2020/12/13 07:21:31;;;;;;;3.40;2.87;;;8.30;99.90;;;;;;5080008;28;20446;-91
2020/12/13 07:24:00;;;;;;;3.17;2.90;;;8.30;99.90;;;;;;5080009;28;20949;-91
2020/12/13 07:26:28;;;;;;;2.77;2.57;;;8.30;99.90;;;;;;5072155;28;20481;-90
2020/12/13 07:28:55;;;;;;;2.80;2.60;;;8.40;99.90;;;;;;5080338;28;20923;-92
2020/12/13 07:31:22;;;;;;;3.13;2.83;;;8.40;99.90;;;;;;5077892;28;20475;-92
2020/12/13 07:33:48;;;;;;;3.47;2.77;;;8.40;99.90;;;;;;5071097;28;20443;-90
2020/12/13 07:36:15;;;;;;;3.47;3.00;;;8.30;99.90;;;;;;5078998;28;20462;-89
2020/12/13 07:38:41;;;;;;;3.33;2.70;;;8.40;99.90;;;;;;5077784;28;20450;-90
2020/12/13 07:41:19;;;;;;;2.87;2.67;;;8.30;99.90;;;;;;5081337;28;20466;-90
2020/12/13 07:44:05;;;;;;;3.33;2.83;;;8.30;99.90;;;;;;5080196;28;20463;-91
2020/12/13 07:46:33;;;;;;;4.30;3.60;;;8.30;99.90;;;;;;5079755;28;20500;-89
2020/12/13 07:49:00;;;;;;;4.70;3.00;;;8.40;99.90;;;;;;5074594;28;20446;-90
2020/12/13 07:51:26;;;;;;;2.93;2.37;;;8.40;99.90;;;;;;5076374;28;20474;-90
2020/12/13 07:53:53;;;;;;;2.57;2.23;;;8.40;99.90;;;;;;5081905;28;20447;-90
2020/12/13 07:56:27;;;;;;;5.73;2.93;;;8.40;99.90;;;;;;5078012;28;20482;-90
2020/12/13 07:59:10;;;;;;;3.50;2.57;;;8.40;99.90;;;;;;5082109;28;20450;-90
2020/12/13 08:01:37;;;;;;;2.00;1.90;;;8.40;99.90;;;;;;5077557;28;20451;-91
2020/12/13 08:04:04;;;;;;;2.50;1.97;;;8.40;99.90;;;;;;5082556;28;20451;-90
2020/12/13 08:06:30;;;;;;;2.83;2.30;;;8.40;99.90;;;;;;5082470;28;20438;-91
2020/12/13 08:08:56;;;;;;;1.87;1.77;;;8.40;99.90;;;;;;5081321;28;20442;-91
2020/12/13 08:11:23;;;;;;;2.33;2.13;;;8.40;99.90;;;;;;5086711;28;20548;-91
2020/12/13 08:13:51;;;;;;;3.37;1.70;;;8.40;99.90;;;;;;5102584;28;20465;-90
2020/12/13 08:16:17;;;;;;;2.90;1.87;;;8.40;99.90;;;;;;5079750;28;20442;-91
2020/12/13 08:18:46;;;;;;;2.33;1.90;;;8.40;99.90;;;;;;5081158;28;20447;-91
2020/12/13 08:21:16;;;;;;;2.20;2.00;;;8.40;99.90;;;;;;5075328;28;20463;-86
2020/12/13 08:23:44;;;;;;;2.50;2.27;;;8.40;99.90;;;;;;5080251;28;20458;-85
2020/12/13 08:26:10;;;;;;;3.87;3.17;;;8.40;99.90;;;;;;5077693;28;20505;-86
2020/12/13 08:28:39;;;;;;;2.53;2.23;;;8.40;99.90;;;;;;5080248;28;20432;-86
2020/12/13 08:31:11;;;;;;;2.60;2.40;;;8.40;99.90;;;;;;5079186;28;20478;-90
2020/12/13 08:33:38;;;;;;;2.70;2.03;;;8.40;99.90;;;;;;5082887;28;20459;-92
2020/12/13 08:36:17;;;;;;;2.13;1.93;;;8.40;99.90;;;;;;5089646;28;20519;-91
2020/12/13 08:38:43;;;;;;;2.87;2.57;;;8.40;99.90;;;;;;5091751;28;20447;-89
2020/12/13 08:41:12;;;;;;;2.10;1.90;;;8.40;99.90;;;;;;5076692;28;20460;-91
2020/12/13 08:43:39;;;;;;;3.67;2.90;;;8.50;99.90;;;;;;5078043;28;20451;-89
2020/12/13 08:46:06;;;;;;;2.63;2.30;;;8.50;99.90;;;;;;5082685;28;20479;-90
2020/12/13 08:48:32;;;;;;;3.23;2.77;;;8.60;99.90;;;;;;5084524;28;20525;-90
2020/12/13 08:51:07;;;;;;;2.87;2.60;;;8.60;99.90;;;;;;5093054;28;20480;-91
2020/12/13 08:53:33;;;;;;;2.87;2.50;;;8.70;99.90;;;;;;5077214;28;20439;-89
2020/12/13 08:56:03;;;;;;;3.57;2.83;;;8.80;99.90;;;;;;5067819;28;20440;-91
2020/12/13 08:58:29;;;;;;;4.33;2.73;;;8.80;99.90;;;;;;5055946;28;20451;-91
2020/12/13 09:01:05;;;;;;;2.80;2.60;;;8.90;99.90;;;;;;5069231;28;20463;-89
2020/12/13 09:03:32;;;;;;;4.90;2.73;;;8.90;99.90;;;;;;5067289;28;20455;-90
2020/12/13 09:05:58;;;;;;;2.10;1.93;;;9.00;99.90;;;;;;5054894;28;20433;-90
2020/12/13 09:08:25;;;;;;;5.07;2.90;;;9.10;99.90;;;;;;5065258;28;20452;-90
2020/12/13 09:10:52;;;;;;;2.60;2.40;;;9.20;99.90;;;;;;5070228;28;20476;-90
2020/12/13 09:13:19;;;;;;;3.50;2.67;;;9.30;99.90;;;;;;5069957;28;20451;-90
2020/12/13 09:15:45;;;;;;;2.73;2.53;;;9.40;99.90;;;;;;5072787;28;20455;-90
2020/12/13 09:18:11;;;;;;;2.93;2.70;;;9.40;99.90;;;;;;5074953;28;20462;-90
2020/12/13 09:20:39;;;;;;;2.47;2.27;;;9.50;99.90;;;;;;5060536;28;20510;-90
2020/12/13 09:23:07;;;;;;;2.80;2.33;;;9.50;99.90;;;;;;5067256;28;20450;-89
2020/12/13 09:25:37;;;;;;;2.53;2.33;;;9.50;99.90;;;;;;5072647;28;20442;-90
2020/12/13 09:28:04;;;;;;;2.57;2.37;;;9.60;99.90;;;;;;5054638;28;20937;-90
2020/12/13 09:30:30;;;;;;;4.87;3.10;;;9.60;99.90;;;;;;5062098;28;20550;-90
2020/12/13 09:32:57;;;;;;;3.43;2.53;;;9.60;99.90;;;;;;5066145;28;20451;-90
2020/12/13 09:35:24;;;;;;;3.13;2.90;;;9.70;99.90;;;;;;5074185;28;20496;-91
2020/12/13 09:37:51;;;;;;;3.80;2.33;;;9.70;99.90;;;;;;5073660;28;20443;-91
2020/12/13 09:40:17;;;;;;;2.70;2.50;;;9.80;99.90;;;;;;5074261;28;20452;-90
2020/12/13 09:42:44;;;;;;;3.93;3.40;;;9.80;99.90;;;;;;5071576;28;21005;-90
2020/12/13 09:45:10;;;;;;;4.00;3.70;;;9.90;99.90;;;;;;5073317;28;20857;-90
2020/12/13 09:47:36;;;;;;;4.00;3.70;;;9.80;99.90;;;;;;5077177;28;20456;-90
2020/12/13 09:50:03;;;;;;;3.90;3.60;;;9.80;99.90;;;;;;5074477;28;20474;-90
2020/12/13 09:52:31;;;;;;;3.70;3.40;;;9.90;99.90;;;;;;5066408;28;20439;-90
2020/12/13 09:54:58;;;;;;;3.80;3.50;;;9.90;99.90;;;;;;5053599;28;20451;-90
2020/12/13 09:57:24;;;;;;;5.13;4.17;;;9.90;99.90;;;;;;5071692;28;20459;-90
2020/12/13 09:59:50;;;;;;;4.90;4.40;;;10.00;99.90;;;;;;5072675;28;20498;-90
2020/12/13 10:02:17;;;;;;;4.97;4.00;;;10.10;99.90;;;;;;5058465;28;20456;-91
2020/12/13 10:04:43;;;;;;;5.33;4.07;;;10.10;99.90;;;;;;5053219;28;20479;-90
2020/12/13 10:07:29;;;;;;;4.33;3.93;;;10.10;99.90;;;;;;5053496;28;20437;-91
2020/12/13 10:09:55;;;;;;;6.33;4.17;;;10.20;99.90;;;;;;5053425;28;20468;-91
2020/12/13 10:12:22;;;;;;;7.83;4.57;;;10.30;99.90;;;;;;5059949;28;20874;-91
2020/12/13 10:14:49;;;;;;;5.60;4.57;;;10.40;99.90;;;;;;5073080;28;20251;-90
2020/12/13 10:17:15;;;;;;;4.60;3.80;;;10.40;99.90;;;;;;5070534;28;20512;-90
2020/12/13 10:19:41;;;;;;;4.00;3.60;;;10.40;99.90;;;;;;5073547;28;20462;-91
2020/12/13 10:22:07;;;;;;;4.40;3.50;;;10.40;99.90;;;;;;5060452;28;20443;-91
2020/12/13 10:24:34;;;;;;;4.53;4.10;;;10.30;99.90;;;;;;5057514;28;20460;-90
2020/12/13 10:27:00;;;;;;;11.30;5.10;;;10.20;99.90;;;;;;5063096;28;20505;-90
2020/12/13 10:29:27;;;;;;;6.37;4.70;;;10.10;99.90;;;;;;5081429;28;20463;-91
2020/12/13 10:31:53;;;;;;;4.43;4.03;;;10.10;99.90;;;;;;5060326;28;20480;-90
2020/12/13 10:34:19;;;;;;;3.40;3.10;;;10.20;99.90;;;;;;5073736;28;20459;-90
2020/12/13 10:36:45;;;;;;;5.13;3.90;;;10.10;99.90;;;;;;5072971;28;20539;-89
2020/12/13 10:39:12;;;;;;;5.23;3.77;;;10.20;99.90;;;;;;5072510;28;20451;-90
2020/12/13 10:41:39;;;;;;;4.33;3.37;;;10.30;99.90;;;;;;5073061;28;20444;-89
2020/12/13 10:44:05;;;;;;;4.27;3.90;;;10.40;99.90;;;;;;5053912;28;20448;-90
2020/12/13 10:46:32;;;;;;;4.53;4.13;;;10.50;99.90;;;;;;5053281;28;20483;-90
2020/12/13 10:48:59;;;;;;;4.03;3.60;;;10.50;99.90;;;;;;5070058;28;20454;-90
2020/12/13 10:51:25;;;;;;;5.30;3.93;;;10.70;99.90;;;;;;5072659;28;20506;-90
2020/12/13 10:53:51;;;;;;;4.23;3.47;;;10.70;99.90;;;;;;5055900;28;20510;-89
2020/12/13 10:56:17;;;;;;;5.13;2.80;;;10.80;99.90;;;;;;5060473;28;20452;-90
2020/12/13 10:58:45;;;;;;;6.20;4.07;;;10.80;99.90;;;;;;5072806;28;20956;-90
2020/12/13 11:01:11;;;;;;;5.20;3.97;;;10.80;99.90;;;;;;5062229;28;20483;-91
2020/12/13 11:03:39;;;;;;;3.37;3.07;;;10.70;99.90;;;;;;5066571;28;20891;-90
2020/12/13 11:06:07;;;;;;;4.43;3.07;;;10.90;99.90;;;;;;5063237;28;20456;-90
2020/12/13 11:08:34;;;;;;;5.03;3.20;;;11.00;99.90;;;;;;5053837;28;20837;-89
2020/12/13 11:11:00;;;;;;;3.63;2.67;;;11.80;99.90;;;;;;5066273;28;20484;-91
2020/12/13 11:13:26;;;;;;;3.07;2.30;;;13.50;99.90;;;;;;5052543;28;20450;-89
2020/12/13 11:15:53;;;;;;;3.53;1.70;;;14.80;99.90;;;;;;5068708;28;20448;-90
2020/12/13 11:18:20;;;;;;;3.60;1.80;;;16.70;97.40;;;;;;5072495;28;20952;-90
2020/12/13 11:20:47;;;;;;;2.27;1.47;;;;;;;;;;5054029;28;21015;-90
2020/12/13 11:23:14;;;;;;;2.97;1.93;;;20.30;87.70;;;;;;5052558;28;20449;-91
2020/12/13 11:25:40;;;;;;;1.77;1.67;;;20.60;82.80;;;;;;5068482;28;20867;-90
2020/12/13 11:28:07;;;;;;;3.50;1.90;;;19.30;81.30;;;;;;5067985;28;20446;-91
2020/12/13 11:30:34;;;;;;;1.90;1.73;;;17.70;84.20;;;;;;5054580;28;20483;-91
2020/12/13 11:33:00;;;;;;;4.20;1.90;;;16.30;87.90;;;;;;5064870;28;20456;-90
2020/12/13 11:35:27;;;;;;;2.87;2.30;;;15.30;90.80;;;;;;5057868;28;21064;-90
2020/12/13 11:37:54;;;;;;;2.90;2.37;;;14.50;92.70;;;;;;5070105;28;20461;-91
2020/12/13 11:40:20;;;;;;;3.90;2.90;;;13.80;94.10;;;;;;5081379;28;20464;-90
2020/12/13 11:42:46;;;;;;;5.07;2.30;;;13.30;95.40;;;;;;5081143;28;20795;-90
2020/12/13 11:45:13;;;;;;;3.07;2.40;;;12.90;96.30;;;;;;5079309;28;20440;-92
2020/12/13 11:47:39;;;;;;;2.80;1.97;;;12.60;97.10;;;;;;5080522;28;20448;-89
2020/12/13 11:50:06;;;;;;;2.87;2.20;;;12.30;98.20;;;;;;5081609;28;20513;-89
2020/12/13 11:52:32;;;;;;;2.20;2.00;;;12.00;98.40;;;;;;5079374;28;20475;-88
2020/12/13 11:54:59;;;;;;;4.90;2.93;;;11.80;99.20;;;;;;5077499;28;20476;-89
2020/12/13 11:57:25;;;;;;;4.77;3.47;;;11.70;99.90;;;;;;5079364;28;21004;-90
2020/12/13 11:59:52;;;;;;;5.33;3.10;;;11.60;99.90;;;;;;5079109;28;20470;-85
2020/12/13 12:02:19;;;;;;;3.77;3.37;;;11.60;99.90;;;;;;5080962;28;20440;-86
2020/12/13 12:04:45;;;;;;;4.43;4.03;;;11.60;99.90;;;;;;5077963;28;20505;-86
2020/12/13 12:07:11;;;;;;;6.07;4.03;;;11.40;99.90;;;;;;5081082;28;20890;-86
2020/12/13 12:09:37;;;;;;;5.17;2.53;;;11.40;99.90;;;;;;5080567;28;20466;-86
2020/12/13 12:12:04;;;;;;;3.57;1.83;;;11.30;99.90;;;;;;5080801;28;20474;-86
2020/12/13 12:14:30;;;;;;;3.00;2.20;;;11.30;99.90;;;;;;5077842;28;20451;-86
2020/12/13 12:16:56;;;;;;;2.70;2.23;;;11.30;99.90;;;;;;5080810;28;20963;-88
2020/12/13 12:19:23;;;;;;;3.13;2.23;;;11.30;99.90;;;;;;5080425;28;20452;-86
2020/12/13 12:21:50;;;;;;;3.73;2.40;;;11.30;99.90;;;;;;5081279;28;20949;-87
2020/12/13 12:24:20;;;;;;;4.60;2.43;;;11.30;99.90;;;;;;5080527;28;20445;-86
2020/12/13 12:26:47;;;;;;;2.30;2.10;;;11.20;99.90;;;;;;5078022;28;20440;-87
2020/12/13 12:29:14;;;;;;;2.30;2.10;;;11.20;99.90;;;;;;5079730;28;20535;-86
2020/12/13 12:31:41;;;;;;;2.50;2.10;;;11.20;99.90;;;;;;5079490;28;20474;-87
2020/12/13 12:34:07;;;;;;;2.13;1.90;;;11.10;99.90;;;;;;5079330;28;20439;-87
2020/12/13 12:36:33;;;;;;;2.60;2.33;;;11.10;99.90;;;;;;5079526;28;20499;-86
2020/12/13 12:39:00;;;;;;;3.70;2.20;;;11.10;99.90;;;;;;5078636;28;20451;-86
2020/12/13 12:41:26;;;;;;;2.53;1.90;;;11.10;99.90;;;;;;5079623;28;20450;-86
2020/12/13 12:43:52;;;;;;;3.27;2.47;;;11.00;99.90;;;;;;5076924;28;20427;-86
2020/12/13 12:46:20;;;;;;;6.40;3.60;;;11.00;99.90;;;;;;5093601;28;20488;-87
2020/12/13 12:48:49;;;;;;;3.97;3.40;;;11.00;99.90;;;;;;5079088;28;20452;-87
2020/12/13 12:51:17;;;;;;;7.10;3.33;;;10.90;99.90;;;;;;5078041;28;20456;-86
2020/12/13 12:53:44;;;;;;;4.30;2.53;;;10.80;99.90;;;;;;5076866;28;20439;-86